createdAt,value
2022-09-07T00:01:00.344Z,12.20
2022-09-07T00:06:10.499Z,11.40
2022-09-07T00:11:15.814Z,8.60
2022-09-07T00:16:28.484Z,8.50
2022-09-07T00:21:31.572Z,9.60
2022-09-07T00:26:33.245Z,8.80
2022-09-07T00:31:35.569Z,10.50
2022-09-07T00:36:37.452Z,11.60
2022-09-07T00:41:39.588Z,12.10
2022-09-07T00:46:41.496Z,15.50
2022-09-07T00:51:57.987Z,8.50
2022-09-07T00:57:00.405Z,12.70
2022-09-07T01:02:02.596Z,9.50
2022-09-07T01:07:08.019Z,11.50
2022-09-07T01:12:09.733Z,13.70
2022-09-07T01:17:39.478Z,10.50
2022-09-07T01:22:53.967Z,11.40
2022-09-07T01:28:22.877Z,9.80
2022-09-07T01:33:35.908Z,12.20
2022-09-07T01:38:56.783Z,13.10
2022-09-07T01:44:22.941Z,9.90
2022-09-07T01:49:40.796Z,9.40
2022-09-07T01:54:50.343Z,9.80
2022-09-07T01:59:57.381Z,10.40
2022-09-07T02:05:10.279Z,8.60
2022-09-07T02:10:27.579Z,10.80
2022-09-07T02:15:47.144Z,10.50
2022-09-07T02:20:53.385Z,8.80
2022-09-07T02:26:10.664Z,13.70
2022-09-07T02:31:12.479Z,12.00
2022-09-07T02:36:17.726Z,8.80
2022-09-07T02:41:41.938Z,9.50
2022-09-07T02:47:10.298Z,12.90
2022-09-07T02:52:55.932Z,13.30
2022-09-07T02:58:24.345Z,11.60
2022-09-07T03:03:32.202Z,14.70
2022-09-07T03:08:43.549Z,10.70
2022-09-07T03:13:45.445Z,14.80
2022-09-07T03:18:50.283Z,14.80
2022-09-07T03:23:53.310Z,12.20
2022-09-07T03:28:55.724Z,14.60
2022-09-07T03:33:57.651Z,15.00
2022-09-07T03:38:59.612Z,14.10
2022-09-07T03:44:05.277Z,11.60
2022-09-07T03:49:07.065Z,14.10
2022-09-07T03:54:08.882Z,16.20
2022-09-07T04:04:49.399Z,10.60
2022-09-07T04:21:50.549Z,17.10
2022-09-07T04:26:54.651Z,14.90
2022-09-07T04:31:56.388Z,15.60
2022-09-07T04:36:58.159Z,17.40
2022-09-07T04:42:00.082Z,17.20
2022-09-07T04:47:01.904Z,13.60
2022-09-07T05:24:15.125Z,12.90
2022-09-07T05:49:42.929Z,13.50
2022-09-07T05:55:26.221Z,16.70
2022-09-07T06:00:27.304Z,15.00
2022-09-07T06:05:29.072Z,17.30
2022-09-07T06:15:44.107Z,14.40
2022-09-07T06:20:46.097Z,23.80
2022-09-07T06:25:49.325Z,16.00
2022-09-07T06:30:51.110Z,17.70
2022-09-07T06:36:03.511Z,10.00
2022-09-07T06:51:50.412Z,18.30
2022-09-07T06:56:52.256Z,26.50
2022-09-07T07:01:54.070Z,17.20
2022-09-07T07:06:55.883Z,16.70
2022-09-07T07:11:57.723Z,15.70
2022-09-07T07:16:59.524Z,16.20
2022-09-07T07:22:14.304Z,13.50
2022-09-07T07:27:23.227Z,17.80
2022-09-07T07:32:24.979Z,13.80
2022-09-07T07:37:28.277Z,21.40
2022-09-07T07:42:30.263Z,13.60
2022-09-07T07:47:32.296Z,15.90
2022-09-07T07:58:01.687Z,17.70
2022-09-07T08:03:03.414Z,14.10
2022-09-07T08:08:05.381Z,15.90
2022-09-07T08:13:10.666Z,16.00
2022-09-07T08:18:32.347Z,17.30
2022-09-07T08:23:47.678Z,13.10
2022-09-07T08:28:49.434Z,19.60
2022-09-07T08:33:51.283Z,21.50
2022-09-07T08:38:53.705Z,15.90
2022-09-07T08:44:20.555Z,15.90
2022-09-07T08:49:48.656Z,11.40
2022-09-07T08:55:14.346Z,13.70
2022-09-07T09:00:36.356Z,17.10
2022-09-07T09:06:37.260Z,15.80
2022-09-07T09:12:17.544Z,20.50
2022-09-07T09:17:25.062Z,16.70
2022-09-07T09:22:28.572Z,20.10
2022-09-07T09:27:30.237Z,18.50
2022-09-07T09:32:35.875Z,16.80
2022-09-07T09:37:39.905Z,14.10
2022-09-07T09:42:41.821Z,16.70
2022-09-07T09:47:49.606Z,12.90
2022-09-07T09:52:52.833Z,13.00
2022-09-07T10:08:57.922Z,18.80
2022-09-07T10:13:59.718Z,18.80
2022-09-07T10:19:01.560Z,19.50
2022-09-07T10:24:06.234Z,16.70
2022-09-07T10:29:24.922Z,15.70
2022-09-07T10:34:52.245Z,21.40
2022-09-07T10:40:17.042Z,18.00
2022-09-07T10:45:36.875Z,11.30
2022-09-07T10:50:53.610Z,15.90
2022-09-07T10:56:04.403Z,16.90
2022-09-07T11:01:34.518Z,14.50
2022-09-07T11:06:48.278Z,14.10
2022-09-07T11:12:04.715Z,18.00
2022-09-07T11:17:14.332Z,10.70
2022-09-07T11:22:42.289Z,13.50
2022-09-07T11:28:09.359Z,17.70
2022-09-07T11:33:39.120Z,12.00
2022-09-07T11:39:11.652Z,12.30
2022-09-07T11:44:21.823Z,11.60
2022-09-07T11:49:26.060Z,16.20
2022-09-07T11:54:45.847Z,10.80
2022-09-07T12:10:58.219Z,11.50
2022-09-07T12:36:31.500Z,8.50
2022-09-07T12:41:47.869Z,12.20
2022-09-07T12:47:11.206Z,11.00
2022-09-07T12:52:39.872Z,9.60
2022-09-07T12:58:16.795Z,12.30
2022-09-07T13:09:13.611Z,10.90
2022-09-07T13:14:27.923Z,10.80
2022-09-07T13:19:50.915Z,9.20
2022-09-07T13:24:54.491Z,9.10
2022-09-07T13:30:01.674Z,12.20
2022-09-07T13:35:05.408Z,10.00
2022-09-07T13:40:10.945Z,13.50
2022-09-07T13:45:49.385Z,10.30
2022-09-07T14:21:55.890Z,6.30
2022-09-07T14:27:07.770Z,9.50
2022-09-07T14:32:14.511Z,7.60
2022-09-07T14:43:36.824Z,7.80
2022-09-07T14:48:40.276Z,8.50
2022-09-07T14:54:07.402Z,9.10
2022-09-07T14:59:40.578Z,10.50
2022-09-07T15:05:16.384Z,10.50
2022-09-07T15:10:37.009Z,9.20
2022-09-07T15:15:41.645Z,6.80
2022-09-07T15:20:45.041Z,11.00
2022-09-07T15:25:53.658Z,10.10
2022-09-07T15:36:17.630Z,11.40
2022-09-07T15:41:23.961Z,11.20
2022-09-07T15:46:27.303Z,13.80
2022-09-07T16:13:01.508Z,11.50
2022-09-07T16:18:04.625Z,10.60
2022-09-07T16:23:15.845Z,11.10
2022-09-07T16:28:18.395Z,11.10
2022-09-07T16:33:20.272Z,11.30
2022-09-07T16:43:44.121Z,30.90
2022-09-07T16:48:46.017Z,25.10
2022-09-07T16:53:53.844Z,28.60
2022-09-07T16:59:01.838Z,26.30
2022-09-07T17:04:09.809Z,21.10
2022-09-07T17:09:14.617Z,29.00
2022-09-07T17:14:16.622Z,32.30
2022-09-07T17:19:33.647Z,32.20
2022-09-07T17:24:35.568Z,26.60
2022-09-07T17:29:43.646Z,25.40
2022-09-07T17:35:00.522Z,29.30
2022-09-07T17:40:05.815Z,33.50
2022-09-07T17:45:08.359Z,27.80
2022-09-07T17:50:30.407Z,25.80
2022-09-07T17:55:52.427Z,24.90
2022-09-07T18:01:11.445Z,21.80
2022-09-07T18:06:14.892Z,16.20
2022-09-07T18:16:41.491Z,26.00
2022-09-07T18:21:43.849Z,19.30
2022-09-07T18:26:52.206Z,21.70
2022-09-07T18:31:55.147Z,22.60
2022-09-07T18:36:58.456Z,26.70
2022-09-07T18:42:01.581Z,26.70
2022-09-07T18:47:03.848Z,22.50
2022-09-07T18:57:36.498Z,19.80
2022-09-07T19:02:38.547Z,20.90
2022-09-07T19:07:40.585Z,28.70
2022-09-07T19:12:45.662Z,25.70
2022-09-07T19:17:51.785Z,27.30
2022-09-07T19:22:53.498Z,23.00
2022-09-07T19:27:55.695Z,25.90
2022-09-07T19:33:02.094Z,25.60
2022-09-07T19:38:06.085Z,21.80
2022-09-07T19:43:07.904Z,28.80
2022-09-07T19:48:09.751Z,26.00
2022-09-07T19:53:11.694Z,21.60
2022-09-07T19:58:13.742Z,21.60
2022-09-07T20:03:15.449Z,24.80
2022-09-07T20:08:17.225Z,20.90
2022-09-07T20:13:19.340Z,29.50
2022-09-07T20:18:22.386Z,22.90
2022-09-07T20:23:24.173Z,17.60
2022-09-07T20:28:26.277Z,20.70
2022-09-07T20:33:31.269Z,21.70
2022-09-07T20:38:42.761Z,16.20
2022-09-07T20:43:44.650Z,27.00
2022-09-07T20:48:46.424Z,17.70
2022-09-07T20:54:03.396Z,17.90
2022-09-07T20:59:12.500Z,22.70
2022-09-07T21:04:14.391Z,24.90
2022-09-07T21:09:16.246Z,20.30
2022-09-07T21:14:19.249Z,19.70
2022-09-07T21:19:21.127Z,19.00
2022-09-07T21:24:23.327Z,18.50
2022-09-07T21:29:45.440Z,18.60
2022-09-07T21:35:00.822Z,18.20
2022-09-07T21:40:10.736Z,19.00
2022-09-07T21:45:12.589Z,16.70
2022-09-07T21:50:14.584Z,20.80
2022-09-07T21:55:16.626Z,21.20
2022-09-07T22:00:38.487Z,21.60
2022-09-07T22:05:53.824Z,19.20
2022-09-07T22:11:03.658Z,21.20
2022-09-07T22:16:09.743Z,18.60
2022-09-07T22:21:26.939Z,18.50
2022-09-07T22:26:31.712Z,19.30
2022-09-07T22:31:35.774Z,19.70
2022-09-07T22:36:42.011Z,20.50
2022-09-07T22:41:44.824Z,21.40
2022-09-07T22:46:47.125Z,23.80
2022-09-07T22:51:49.133Z,20.70
2022-09-07T22:56:50.919Z,19.70
2022-09-07T23:01:52.667Z,20.60
2022-09-07T23:06:54.465Z,20.70
2022-09-07T23:11:56.158Z,20.40
2022-09-07T23:17:16.841Z,22.10
2022-09-07T23:22:18.614Z,23.20
2022-09-07T23:27:20.572Z,21.00
2022-09-07T23:32:22.340Z,20.90
2022-09-07T23:37:24.149Z,19.80
2022-09-07T23:42:25.873Z,22.20
2022-09-07T23:47:27.671Z,23.10
2022-09-07T23:52:29.722Z,21.50
2022-09-07T23:57:31.626Z,22.60
